Time,TemperatureF,DewpointF,PressureIn,WindDirection,WindDirectionDegrees,WindSpeedMPH,WindSpeedGustMPH,Humidity,HourlyPrecipIn,Conditions,Clouds,dailyrainin,SoftwareType,DateUTC
2013-10-23 00:00:00,60.3,20.2,30.23,WSW,252,0.0,4.0,21,0.00,,,0.00,Wunderground v.1.15,2013-10-23 07:00:00,
2013-10-23 00:05:00,60.0,19.9,30.23,WSW,252,0.0,4.0,21,0.00,,,0.00,Wunderground v.1.15,2013-10-23 07:05:00,
2013-10-23 00:15:00,58.4,20.7,30.23,WSW,252,0.0,4.0,23,0.00,,,0.00,Wunderground v.1.15,2013-10-23 07:15:00,
2013-10-23 00:20:00,58.4,20.7,30.23,WSW,252,0.0,4.0,23,0.00,,,0.00,Wunderground v.1.15,2013-10-23 07:20:00,
2013-10-23 00:30:00,58.6,19.8,30.23,WSW,252,0.0,4.0,22,0.00,,,0.00,Wunderground v.1.15,2013-10-23 07:30:00,
2013-10-23 00:35:00,58.5,20.8,30.23,WSW,252,0.0,4.0,23,0.00,,,0.00,Wunderground v.1.15,2013-10-23 07:35:00,
2013-10-23 00:40:00,58.7,19.9,30.23,WSW,252,1.0,1.0,22,0.00,,,0.00,Wunderground v.1.15,2013-10-23 07:40:00,
2013-10-23 00:45:00,58.8,20.0,30.23,WSW,252,2.0,2.0,22,0.00,,,0.00,Wunderground v.1.15,2013-10-23 07:45:00,
2013-10-23 00:55:00,58.5,19.7,30.23,WSW,252,2.0,4.0,22,0.00,,,0.00,Wunderground v.1.15,2013-10-23 07:55:00,
2013-10-23 01:00:00,58.5,19.7,30.23,WSW,252,2.0,2.0,22,0.00,,,0.00,Wunderground v.1.15,2013-10-23 08:00:00,
2013-10-23 01:10:00,59.3,20.4,30.23,WSW,252,3.0,4.0,22,0.00,,,0.00,Wunderground v.1.15,2013-10-23 08:10:00,
2013-10-23 01:15:00,59.6,19.6,30.23,WSW,252,3.0,4.0,21,0.00,,,0.00,Wunderground v.1.15,2013-10-23 08:15:00,
2013-10-23 01:20:00,59.9,19.8,30.23,WSW,252,2.0,5.0,21,0.00,,,0.00,Wunderground v.1.15,2013-10-23 08:20:00,
2013-10-23 01:30:00,59.6,19.6,30.23,WSW,258,3.0,5.0,21,0.00,,,0.00,Wunderground v.1.15,2013-10-23 08:30:00,
2013-10-23 01:35:00,59.2,20.3,30.22,West,259,3.0,5.0,22,0.00,,,0.00,Wunderground v.1.15,2013-10-23 08:35:00,
2013-10-23 01:45:00,58.1,19.4,30.22,West,259,1.0,3.0,22,0.00,,,0.00,Wunderground v.1.15,2013-10-23 08:45:00,
2013-10-23 01:50:00,57.7,20.1,30.22,West,259,2.0,2.0,23,0.00,,,0.00,Wunderground v.1.15,2013-10-23 08:50:00,
2013-10-23 02:00:00,57.6,20.0,30.22,West,259,2.0,6.0,23,0.00,,,0.00,Wunderground v.1.15,2013-10-23 09:00:00,
2013-10-23 02:05:00,57.3,19.8,30.22,West,259,2.0,6.0,23,0.00,,,0.00,Wunderground v.1.15,2013-10-23 09:05:00,
2013-10-23 02:15:00,57.1,19.6,30.22,West,259,2.0,6.0,23,0.00,,,0.00,Wunderground v.1.15,2013-10-23 09:15:00,
2013-10-23 02:25:00,57.2,19.7,30.22,West,259,2.0,5.0,23,0.00,,,0.00,Wunderground v.1.15,2013-10-23 09:25:00,
2013-10-23 02:35:00,56.4,20.0,30.21,West,259,2.0,5.0,24,0.00,,,0.00,Wunderground v.1.15,2013-10-23 09:35:00,
2013-10-23 02:45:00,55.7,18.4,30.21,West,259,3.0,5.0,23,0.00,,,0.00,Wunderground v.1.15,2013-10-23 09:45:00,
2013-10-23 02:50:00,55.3,18.1,30.21,West,259,2.0,2.0,23,0.00,,,0.00,Wunderground v.1.15,2013-10-23 09:50:00,
2013-10-23 03:00:00,57.8,18.1,30.21,West,259,1.0,1.0,21,0.00,,,0.00,Wunderground v.1.15,2013-10-23 10:00:00,
2013-10-23 03:05:00,58.6,17.6,30.20,West,259,1.0,4.0,20,0.00,,,0.00,Wunderground v.1.15,2013-10-23 10:05:00,
2013-10-23 03:15:00,59.3,17.0,30.20,West,259,1.0,4.0,19,0.00,,,0.00,Wunderground v.1.15,2013-10-23 10:15:00,
2013-10-23 03:20:00,58.1,17.2,30.20,West,259,1.0,4.0,20,0.00,,,0.00,Wunderground v.1.15,2013-10-23 10:20:00,
2013-10-23 03:25:00,56.7,17.1,30.20,West,259,1.0,4.0,21,0.00,,,0.00,Wunderground v.1.15,2013-10-23 10:25:00,
2013-10-23 03:30:00,56.3,16.8,30.20,West,259,2.0,2.0,21,0.00,,,0.00,Wunderground v.1.15,2013-10-23 10:30:00,
2013-10-23 03:40:00,56.7,17.1,30.20,West,259,1.0,4.0,21,0.00,,,0.00,Wunderground v.1.15,2013-10-23 10:40:00,
2013-10-23 03:45:00,56.3,16.8,30.20,West,259,2.0,4.0,21,0.00,,,0.00,Wunderground v.1.15,2013-10-23 10:45:00,
2013-10-23 03:50:00,57.1,17.5,30.20,West,259,2.0,4.0,21,0.00,,,0.00,Wunderground v.1.15,2013-10-23 10:50:00,
2013-10-23 04:00:00,58.7,18.8,30.20,West,259,2.0,2.0,21,0.00,,,0.00,Wunderground v.1.15,2013-10-23 11:00:00,
2013-10-23 04:05:00,58.9,19.0,30.20,West,259,1.0,4.0,21,0.00,,,0.00,Wunderground v.1.15,2013-10-23 11:05:00,
2013-10-23 04:15:00,57.0,18.5,30.20,West,259,0.0,4.0,22,0.00,,,0.00,Wunderground v.1.15,2013-10-23 11:15:00,
2013-10-23 04:20:00,56.3,18.9,30.20,West,259,0.0,4.0,23,0.00,,,0.00,Wunderground v.1.15,2013-10-23 11:20:00,
2013-10-23 04:25:00,55.9,18.6,30.20,West,259,0.0,4.0,23,0.00,,,0.00,Wunderground v.1.15,2013-10-23 11:25:00,
2013-10-23 04:35:00,57.1,19.6,30.20,West,259,2.0,4.0,23,0.00,,,0.00,Wunderground v.1.15,2013-10-23 11:35:00,
2013-10-23 04:40:00,57.5,19.9,30.20,West,259,2.0,2.0,23,0.00,,,0.00,Wunderground v.1.15,2013-10-23 11:40:00,
2013-10-23 04:50:00,57.8,20.2,30.20,West,259,1.0,1.0,23,0.00,,,0.00,Wunderground v.1.15,2013-10-23 11:50:00,
2013-10-23 04:55:00,57.8,20.2,30.20,West,259,1.0,5.0,23,0.00,,,0.00,Wunderground v.1.15,2013-10-23 11:55:00,
2013-10-23 05:00:00,57.7,20.1,30.20,West,259,1.0,5.0,23,0.00,,,0.00,Wunderground v.1.15,2013-10-23 12:00:00,
2013-10-23 05:10:00,57.8,20.2,30.20,West,259,1.0,5.0,23,0.00,,,0.00,Wunderground v.1.15,2013-10-23 12:10:00,
2013-10-23 05:15:00,58.3,20.6,30.20,West,259,2.0,5.0,23,0.00,,,0.00,Wunderground v.1.15,2013-10-23 12:15:00,
2013-10-23 05:20:00,58.5,20.8,30.20,West,259,2.0,2.0,23,0.00,,,0.00,Wunderground v.1.15,2013-10-23 12:20:00,
2013-10-23 05:30:00,58.2,20.5,30.21,West,259,2.0,2.0,23,0.00,,,0.00,Wunderground v.1.15,2013-10-23 12:30:00,
2013-10-23 05:35:00,57.6,20.0,30.20,West,259,2.0,4.0,23,0.00,,,0.00,Wunderground v.1.15,2013-10-23 12:35:00,
2013-10-23 05:40:00,56.5,20.1,30.20,West,259,1.0,4.0,24,0.00,,,0.00,Wunderground v.1.15,2013-10-23 12:40:00,
2013-10-23 05:50:00,53.9,19.8,30.20,West,259,2.0,5.0,26,0.00,,,0.00,Wunderground v.1.15,2013-10-23 12:50:00,
2013-10-23 05:55:00,53.6,20.4,30.20,West,259,2.0,5.0,27,0.00,,,0.00,Wunderground v.1.15,2013-10-23 12:55:00,
2013-10-23 06:00:00,54.0,20.7,30.21,West,259,3.0,3.0,27,0.00,,,0.00,Wunderground v.1.15,2013-10-23 13:00:00,
2013-10-23 06:10:00,55.8,20.5,30.21,West,259,3.0,5.0,25,0.00,,,0.00,Wunderground v.1.15,2013-10-23 13:10:00,
2013-10-23 06:15:00,56.7,20.3,30.21,West,259,3.0,5.0,24,0.00,,,0.00,Wunderground v.1.15,2013-10-23 13:15:00,
2013-10-23 06:20:00,57.6,21.0,30.21,West,259,3.0,5.0,24,0.00,,,0.00,Wunderground v.1.15,2013-10-23 13:20:00,
2013-10-23 06:30:00,58.1,20.4,30.21,West,259,2.0,2.0,23,0.00,,,0.00,Wunderground v.1.15,2013-10-23 13:30:00,
2013-10-23 06:35:00,57.6,20.0,30.21,West,259,1.0,5.0,23,0.00,,,0.00,Wunderground v.1.15,2013-10-23 13:35:00,
2013-10-23 06:45:00,54.7,20.4,30.21,West,259,2.0,2.0,26,0.00,,,0.00,Wunderground v.1.15,2013-10-23 13:45:00,
2013-10-23 06:50:00,54.2,20.0,30.21,West,259,2.0,7.0,26,0.00,,,0.00,Wunderground v.1.15,2013-10-23 13:50:00,
2013-10-23 06:55:00,54.4,20.2,30.21,West,259,2.0,7.0,26,0.00,,,0.00,Wunderground v.1.15,2013-10-23 13:55:00,
2013-10-23 07:00:00,54.5,20.3,30.21,West,259,3.0,7.0,26,0.00,,,0.00,Wunderground v.1.15,2013-10-23 14:00:00,
2013-10-23 07:05:00,55.1,20.8,30.21,West,259,3.0,7.0,26,0.00,,,0.00,Wunderground v.1.15,2013-10-23 14:05:00,
2013-10-23 07:15:00,55.8,20.5,30.21,West,259,3.0,7.0,25,0.00,,,0.00,Wunderground v.1.15,2013-10-23 14:15:00,
2013-10-23 07:20:00,56.3,20.9,30.21,West,259,2.0,5.0,25,0.00,,,0.00,Wunderground v.1.15,2013-10-23 14:20:00,
2013-10-23 07:30:00,55.5,21.1,30.21,West,259,2.0,5.0,26,0.00,,,0.00,Wunderground v.1.15,2013-10-23 14:30:00,
2013-10-23 07:35:00,55.5,21.1,30.21,West,259,2.0,5.0,26,0.00,,,0.00,Wunderground v.1.15,2013-10-23 14:35:00,
2013-10-23 07:45:00,56.1,21.6,30.22,West,259,2.0,5.0,26,0.00,,,0.00,Wunderground v.1.15,2013-10-23 14:45:00,
2013-10-23 07:50:00,57.1,21.6,30.22,West,259,2.0,2.0,25,0.00,,,0.00,Wunderground v.1.15,2013-10-23 14:50:00,
2013-10-23 08:00:00,59.6,22.7,30.22,West,259,1.0,1.0,24,0.00,,,0.00,Wunderground v.1.15,2013-10-23 15:00:00,
2013-10-23 08:05:00,60.5,22.5,30.22,West,259,0.0,5.0,23,0.00,,,0.00,Wunderground v.1.15,2013-10-23 15:05:00,
2013-10-23 08:15:00,62.0,23.7,30.22,West,259,0.0,5.0,23,0.00,,,0.00,Wunderground v.1.15,2013-10-23 15:15:00,
2013-10-23 08:20:00,62.9,23.4,30.22,West,259,0.0,4.0,22,0.00,,,0.00,Wunderground v.1.15,2013-10-23 15:20:00,
2013-10-23 08:25:00,63.9,23.2,30.23,West,259,0.0,4.0,21,0.00,,,0.00,Wunderground v.1.15,2013-10-23 15:25:00,
2013-10-23 08:30:00,65.0,22.9,30.23,West,259,0.0,4.0,20,0.00,,,0.00,Wunderground v.1.15,2013-10-23 15:30:00,
2013-10-23 08:35:00,66.1,22.6,30.23,West,259,0.0,4.0,19,0.00,,,0.00,Wunderground v.1.15,2013-10-23 15:35:00,
2013-10-23 08:45:00,67.6,22.5,30.23,West,259,0.0,4.0,18,0.00,,,0.00,Wunderground v.1.15,2013-10-23 15:45:00,
2013-10-23 08:50:00,68.5,21.9,30.23,West,259,0.0,1.0,17,0.00,,,0.00,Wunderground v.1.15,2013-10-23 15:50:00,
2013-10-23 09:00:00,69.3,19.6,30.23,West,259,0.0,1.0,15,0.00,,,0.00,Wunderground v.1.15,2013-10-23 16:00:00,
2013-10-23 09:05:00,69.4,21.2,30.23,West,259,0.0,1.0,16,0.00,,,0.00,Wunderground v.1.15,2013-10-23 16:05:00,
2013-10-23 09:15:00,69.4,19.7,30.23,West,259,0.0,1.0,15,0.00,,,0.00,Wunderground v.1.15,2013-10-23 16:15:00,
2013-10-23 09:20:00,69.4,19.7,30.23,West,259,0.0,0.0,15,0.00,,,0.00,Wunderground v.1.15,2013-10-23 16:20:00,
2013-10-23 09:30:00,69.5,19.8,30.23,West,259,0.0,3.0,15,0.00,,,0.00,Wunderground v.1.15,2013-10-23 16:30:00,
2013-10-23 09:35:00,69.5,21.3,30.23,West,259,1.0,3.0,16,0.00,,,0.00,Wunderground v.1.15,2013-10-23 16:35:00,
2013-10-23 09:45:00,69.9,20.1,30.23,West,259,1.0,1.0,15,0.00,,,0.00,Wunderground v.1.15,2013-10-23 16:45:00,
2013-10-23 09:50:00,69.9,20.1,30.23,West,259,1.0,1.0,15,0.00,,,0.00,Wunderground v.1.15,2013-10-23 16:50:00,
2013-10-23 09:55:00,70.1,20.3,30.23,West,259,1.0,4.0,15,0.00,,,0.00,Wunderground v.1.15,2013-10-23 16:55:00,
2013-10-23 10:00:00,70.1,20.3,30.23,WSW,257,1.0,1.0,15,0.00,,,0.00,Wunderground v.1.15,2013-10-23 17:00:00,
2013-10-23 10:10:00,70.0,20.2,30.23,WSW,239,1.0,4.0,15,0.00,,,0.00,Wunderground v.1.15,2013-10-23 17:10:00,
2013-10-23 10:20:00,70.2,20.3,30.23,SW,225,2.0,4.0,15,0.00,,,0.00,Wunderground v.1.15,2013-10-23 17:20:00,
2013-10-23 10:25:00,70.4,20.5,30.22,SW,215,3.0,5.0,15,0.00,,,0.00,Wunderground v.1.15,2013-10-23 17:25:00,
2013-10-23 10:30:00,70.5,20.6,30.23,SSW,202,3.0,4.0,15,0.00,,,0.00,Wunderground v.1.15,2013-10-23 17:30:00,
2013-10-23 10:40:00,70.9,20.9,30.22,South,187,3.0,3.0,15,0.00,,,0.00,Wunderground v.1.15,2013-10-23 17:40:00,
2013-10-23 10:45:00,71.1,21.1,30.23,South,179,4.0,7.0,15,0.00,,,0.00,Wunderground v.1.15,2013-10-23 17:45:00,
2013-10-23 10:50:00,71.4,21.3,30.22,South,170,4.0,7.0,15,0.00,,,0.00,Wunderground v.1.15,2013-10-23 17:50:00,
2013-10-23 11:00:00,71.5,21.4,30.22,SSE,168,4.0,4.0,15,0.00,,,0.00,Wunderground v.1.15,2013-10-23 18:00:00,
2013-10-23 11:05:00,71.7,21.5,30.22,SSE,168,3.0,6.0,15,0.00,,,0.00,Wunderground v.1.15,2013-10-23 18:05:00,
2013-10-23 11:15:00,72.0,20.1,30.22,SSE,162,3.0,4.0,14,0.00,,,0.00,Wunderground v.1.15,2013-10-23 18:15:00,
2013-10-23 11:20:00,72.0,20.1,30.22,SSE,162,3.0,3.0,14,0.00,,,0.00,Wunderground v.1.15,2013-10-23 18:20:00,
2013-10-23 11:30:00,72.2,20.3,30.22,SSE,160,2.0,2.0,14,0.00,,,0.00,Wunderground v.1.15,2013-10-23 18:30:00,
2013-10-23 11:35:00,72.4,20.5,30.22,SSE,150,2.0,9.0,14,0.00,,,0.00,Wunderground v.1.15,2013-10-23 18:35:00,
2013-10-23 11:40:00,72.4,20.5,30.22,SSE,148,3.0,10.0,14,0.00,,,0.00,Wunderground v.1.15,2013-10-23 18:40:00,
2013-10-23 11:45:00,72.1,20.2,30.22,SSE,150,5.0,10.0,14,0.00,,,0.00,Wunderground v.1.15,2013-10-23 18:45:00,
2013-10-23 11:50:00,72.2,20.3,30.21,SSE,150,4.0,10.0,14,0.00,,,0.00,Wunderground v.1.15,2013-10-23 18:50:00,
2013-10-23 12:00:00,72.4,20.5,30.21,SSE,148,4.0,10.0,14,0.00,,,0.00,Wunderground v.1.15,2013-10-23 19:00:00,
2013-10-23 12:05:00,72.2,20.3,30.21,SSE,148,5.0,10.0,14,0.00,,,0.00,Wunderground v.1.15,2013-10-23 19:05:00,
2013-10-23 12:15:00,72.4,20.5,30.21,SE,146,5.0,10.0,14,0.00,,,0.00,Wunderground v.1.15,2013-10-23 19:15:00,
2013-10-23 12:20:00,72.4,20.5,30.21,SSE,158,5.0,5.0,14,0.00,,,0.00,Wunderground v.1.15,2013-10-23 19:20:00,
2013-10-23 12:30:00,72.8,20.8,30.20,SSE,153,5.0,5.0,14,0.00,,,0.00,Wunderground v.1.15,2013-10-23 19:30:00,
2013-10-23 12:35:00,72.6,20.6,30.20,SSE,164,5.0,8.0,14,0.00,,,0.00,Wunderground v.1.15,2013-10-23 19:35:00,
2013-10-23 12:40:00,72.5,20.5,30.20,SE,143,5.0,11.0,14,0.00,,,0.00,Wunderground v.1.15,2013-10-23 19:40:00,
2013-10-23 12:50:00,73.5,21.3,30.19,SE,136,7.0,12.0,14,0.00,,,0.00,Wunderground v.1.15,2013-10-23 19:50:00,
2013-10-23 12:55:00,73.7,21.5,30.19,SSE,149,7.0,12.0,14,0.00,,,0.00,Wunderground v.1.15,2013-10-23 19:55:00,
2013-10-23 13:00:00,73.6,21.4,30.19,South,175,7.0,12.0,14,0.00,,,0.00,Wunderground v.1.15,2013-10-23 20:00:00,
2013-10-23 13:05:00,74.0,20.0,30.18,SSE,153,6.0,12.0,13,0.00,,,0.00,Wunderground v.1.15,2013-10-23 20:05:00,
2013-10-23 13:15:00,73.5,21.3,30.18,SE,146,8.0,12.0,14,0.00,,,0.00,Wunderground v.1.15,2013-10-23 20:15:00,
2013-10-23 13:20:00,73.6,21.4,30.18,SSE,158,7.0,7.0,14,0.00,,,0.00,Wunderground v.1.15,2013-10-23 20:20:00,
2013-10-23 13:30:00,73.4,21.3,30.18,SSE,148,7.0,14.0,14,0.00,,,0.00,Wunderground v.1.15,2013-10-23 20:30:00,
2013-10-23 13:40:00,73.7,21.5,30.18,SSE,165,6.0,14.0,14,0.00,,,0.00,Wunderground v.1.15,2013-10-23 20:40:00,
2013-10-23 13:45:00,73.8,19.8,30.17,SSE,165,7.0,14.0,13,0.00,,,0.00,Wunderground v.1.15,2013-10-23 20:45:00,
2013-10-23 13:50:00,73.7,21.5,30.17,South,172,7.0,7.0,14,0.00,,,0.00,Wunderground v.1.15,2013-10-23 20:50:00,
2013-10-23 14:00:00,74.5,20.4,30.17,South,175,6.0,14.0,13,0.00,,,0.00,Wunderground v.1.15,2013-10-23 21:00:00,
2013-10-23 14:05:00,74.7,20.5,30.17,SSE,158,6.0,14.0,13,0.00,,,0.00,Wunderground v.1.15,2013-10-23 21:05:00,
2013-10-23 14:15:00,74.9,20.7,30.17,SSE,164,6.0,14.0,13,0.00,,,0.00,Wunderground v.1.15,2013-10-23 21:15:00,
2013-10-23 14:20:00,74.8,20.6,30.17,SSE,150,6.0,13.0,13,0.00,,,0.00,Wunderground v.1.15,2013-10-23 21:20:00,
2013-10-23 14:30:00,74.8,20.6,30.17,SE,141,6.0,13.0,13,0.00,,,0.00,Wunderground v.1.15,2013-10-23 21:30:00,
2013-10-23 14:35:00,74.8,20.6,30.16,South,187,6.0,13.0,13,0.00,,,0.00,Wunderground v.1.15,2013-10-23 21:35:00,
2013-10-23 14:45:00,74.9,20.7,30.16,SSW,202,6.0,8.0,13,0.00,,,0.00,Wunderground v.1.15,2013-10-23 21:45:00,
2013-10-23 14:50:00,75.0,20.8,30.17,South,188,6.0,13.0,13,0.00,,,0.00,Wunderground v.1.15,2013-10-23 21:50:00,
2013-10-23 15:00:00,74.9,20.7,30.16,South,187,7.0,7.0,13,0.00,,,0.00,Wunderground v.1.15,2013-10-23 22:00:00,
2013-10-23 15:05:00,75.1,20.9,30.16,South,171,6.0,13.0,13,0.00,,,0.00,Wunderground v.1.15,2013-10-23 22:05:00,
2013-10-23 15:15:00,75.0,20.8,30.16,South,184,6.0,13.0,13,0.00,,,0.00,Wunderground v.1.15,2013-10-23 22:15:00,
2013-10-23 15:20:00,75.2,20.9,30.16,SSE,161,5.0,15.0,13,0.00,,,0.00,Wunderground v.1.15,2013-10-23 22:20:00,
2013-10-23 15:30:00,75.0,20.8,30.16,South,182,6.0,15.0,13,0.00,,,0.00,Wunderground v.1.15,2013-10-23 22:30:00,
2013-10-23 15:35:00,75.1,19.0,30.16,South,176,6.0,15.0,12,0.00,,,0.00,Wunderground v.1.15,2013-10-23 22:35:00,
2013-10-23 15:45:00,75.4,21.1,30.16,SSE,157,4.0,7.0,13,0.00,,,0.00,Wunderground v.1.15,2013-10-23 22:45:00,
2013-10-23 16:45:00,74.3,20.2,30.16,SSE,164,4.0,12.0,13,0.00,,,0.00,Wunderground v.1.15,2013-10-23 23:45:00,
2013-10-23 16:55:00,74.2,20.1,30.15,South,175,4.0,11.0,13,0.00,,,0.00,Wunderground v.1.15,2013-10-23 23:55:00,
2013-10-23 17:00:00,74.2,20.1,30.15,SSE,150,4.0,11.0,13,0.00,,,0.00,Wunderground v.1.15,2013-10-24 00:00:00,
2013-10-23 17:05:00,74.1,20.1,30.15,South,176,3.0,11.0,13,0.00,,,0.00,Wunderground v.1.15,2013-10-24 00:05:00,
2013-10-23 17:15:00,73.7,19.8,30.16,SSE,165,3.0,5.0,13,0.00,,,0.00,Wunderground v.1.15,2013-10-24 00:15:00,
2013-10-23 17:20:00,73.5,19.6,30.16,SSE,165,4.0,4.0,13,0.00,,,0.00,Wunderground v.1.15,2013-10-24 00:20:00,
2013-10-23 17:30:00,73.1,19.3,30.15,South,177,3.0,3.0,13,0.00,,,0.00,Wunderground v.1.15,2013-10-24 00:30:00,
2013-10-23 17:35:00,72.8,19.0,30.15,South,173,2.0,11.0,13,0.00,,,0.00,Wunderground v.1.15,2013-10-24 00:35:00,
2013-10-23 17:45:00,72.2,18.6,30.15,South,171,2.0,11.0,13,0.00,,,0.00,Wunderground v.1.15,2013-10-24 00:45:00,
2013-10-23 17:50:00,71.9,20.1,30.15,South,171,1.0,1.0,14,0.00,,,0.00,Wunderground v.1.15,2013-10-24 00:50:00,
2013-10-23 18:00:00,71.0,19.4,30.15,South,171,0.0,9.0,14,0.00,,,0.00,Wunderground v.1.15,2013-10-24 01:00:00,
2013-10-23 18:05:00,70.6,19.0,30.16,South,171,0.0,9.0,14,0.00,,,0.00,Wunderground v.1.15,2013-10-24 01:05:00,
2013-10-23 18:15:00,69.4,19.7,30.16,South,171,0.0,9.0,15,0.00,,,0.00,Wunderground v.1.15,2013-10-24 01:15:00,
2013-10-23 18:20:00,68.9,19.3,30.16,South,171,0.0,6.0,15,0.00,,,0.00,Wunderground v.1.15,2013-10-24 01:20:00,
2013-10-23 18:30:00,68.8,19.2,30.16,West,273,0.0,6.0,15,0.00,,,0.00,Wunderground v.1.15,2013-10-24 01:30:00,
2013-10-23 18:35:00,68.7,19.1,30.16,West,273,0.0,6.0,15,0.00,,,0.00,Wunderground v.1.15,2013-10-24 01:35:00,
2013-10-23 18:40:00,68.1,18.7,30.16,West,269,0.0,6.0,15,0.00,,,0.00,Wunderground v.1.15,2013-10-24 01:40:00,
2013-10-23 18:50:00,66.5,18.9,30.16,West,269,1.0,1.0,16,0.00,,,0.00,Wunderground v.1.15,2013-10-24 01:50:00,
2013-10-23 18:55:00,65.5,19.5,30.16,WSW,250,1.0,5.0,17,0.00,,,0.00,Wunderground v.1.15,2013-10-24 01:55:00,
2013-10-23 19:00:00,64.1,19.7,30.16,WSW,258,4.0,4.0,18,0.00,,,0.00,Wunderground v.1.15,2013-10-24 02:00:00,
2013-10-23 19:05:00,63.8,19.4,30.17,West,262,3.0,4.0,18,0.00,,,0.00,Wunderground v.1.15,2013-10-24 02:05:00,
2013-10-23 19:15:00,64.0,22.1,30.17,West,269,2.0,4.0,20,0.00,,,0.00,Wunderground v.1.15,2013-10-24 02:15:00,
2013-10-23 19:20:00,63.8,24.2,30.17,West,275,2.0,2.0,22,0.00,,,0.00,Wunderground v.1.15,2013-10-24 02:20:00,
2013-10-23 19:25:00,63.7,25.2,30.17,WNW,285,2.0,8.0,23,0.00,,,0.00,Wunderground v.1.15,2013-10-24 02:25:00,
2013-10-23 19:35:00,63.1,24.7,30.17,WNW,287,2.0,2.0,23,0.00,,,0.00,Wunderground v.1.15,2013-10-24 02:35:00,
2013-10-23 19:45:00,63.1,25.7,30.17,West,275,2.0,8.0,24,0.00,,,0.00,Wunderground v.1.15,2013-10-24 02:45:00,
2013-10-23 19:50:00,63.1,25.7,30.17,West,275,1.0,1.0,24,0.00,,,0.00,Wunderground v.1.15,2013-10-24 02:50:00,
2013-10-23 20:00:00,62.1,24.8,30.17,West,275,0.0,6.0,24,0.00,,,0.00,Wunderground v.1.15,2013-10-24 03:00:00,
2013-10-23 20:05:00,61.5,24.3,30.17,West,275,0.0,6.0,24,0.00,,,0.00,Wunderground v.1.15,2013-10-24 03:05:00,
2013-10-23 20:15:00,60.9,24.8,30.17,West,275,1.0,6.0,25,0.00,,,0.00,Wunderground v.1.15,2013-10-24 03:15:00,
2013-10-23 20:20:00,60.8,24.7,30.17,West,275,0.0,6.0,25,0.00,,,0.00,Wunderground v.1.15,2013-10-24 03:20:00,
2013-10-23 20:25:00,60.7,24.6,30.17,West,275,0.0,6.0,25,0.00,,,0.00,Wunderground v.1.15,2013-10-24 03:25:00,
2013-10-23 20:30:00,60.4,24.4,30.17,West,275,0.0,6.0,25,0.00,,,0.00,Wunderground v.1.15,2013-10-24 03:30:00,
2013-10-23 20:40:00,59.5,23.6,30.17,West,263,1.0,1.0,25,0.00,,,0.00,Wunderground v.1.15,2013-10-24 03:40:00,
2013-10-23 20:45:00,59.4,23.5,30.18,West,264,3.0,3.0,25,0.00,,,0.00,Wunderground v.1.15,2013-10-24 03:45:00,
2013-10-23 20:50:00,60.1,24.1,30.18,West,267,3.0,5.0,25,0.00,,,0.00,Wunderground v.1.15,2013-10-24 03:50:00,
2013-10-23 21:00:00,60.3,24.3,30.17,West,269,1.0,4.0,25,0.00,,,0.00,Wunderground v.1.15,2013-10-24 04:00:00,
2013-10-23 21:05:00,60.5,24.5,30.18,West,277,2.0,4.0,25,0.00,,,0.00,Wunderground v.1.15,2013-10-24 04:05:00,
2013-10-23 21:10:00,60.9,23.8,30.17,West,271,3.0,3.0,24,0.00,,,0.00,Wunderground v.1.15,2013-10-24 04:10:00,
2013-10-23 21:15:00,61.2,24.1,30.17,West,270,2.0,5.0,24,0.00,,,0.00,Wunderground v.1.15,2013-10-24 04:15:00,
2013-10-23 21:25:00,61.6,24.4,30.17,West,273,2.0,7.0,24,0.00,,,0.00,Wunderground v.1.15,2013-10-24 04:25:00,
2013-10-23 21:35:00,61.4,24.2,30.17,West,274,0.0,7.0,24,0.00,,,0.00,Wunderground v.1.15,2013-10-24 04:35:00,
2013-10-23 21:40:00,60.9,23.8,30.17,West,274,0.0,7.0,24,0.00,,,0.00,Wunderground v.1.15,2013-10-24 04:40:00,
2013-10-23 21:45:00,60.4,24.4,30.17,West,274,0.0,7.0,25,0.00,,,0.00,Wunderground v.1.15,2013-10-24 04:45:00,
2013-10-23 21:55:00,59.2,23.4,30.17,West,272,1.0,6.0,25,0.00,,,0.00,Wunderground v.1.15,2013-10-24 04:55:00,
2013-10-23 22:00:00,59.1,24.2,30.17,West,273,2.0,2.0,26,0.00,,,0.00,Wunderground v.1.15,2013-10-24 05:00:00,
2013-10-23 22:10:00,59.4,24.5,30.17,West,269,2.0,2.0,26,0.00,,,0.00,Wunderground v.1.15,2013-10-24 05:10:00,
2013-10-23 22:15:00,59.3,24.4,30.17,West,269,1.0,6.0,26,0.00,,,0.00,Wunderground v.1.15,2013-10-24 05:15:00,
2013-10-23 22:20:00,58.7,23.9,30.18,West,269,0.0,5.0,26,0.00,,,0.00,Wunderground v.1.15,2013-10-24 05:20:00,
2013-10-23 22:30:00,58.4,24.5,30.18,West,269,0.0,5.0,27,0.00,,,0.00,Wunderground v.1.15,2013-10-24 05:30:00,
2013-10-23 22:35:00,58.1,24.3,30.18,West,269,0.0,5.0,27,0.00,,,0.00,Wunderground v.1.15,2013-10-24 05:35:00,
2013-10-23 22:40:00,58.0,24.2,30.18,West,269,0.0,5.0,27,0.00,,,0.00,Wunderground v.1.15,2013-10-24 05:40:00,
2013-10-23 22:45:00,57.9,24.1,30.18,West,269,0.0,5.0,27,0.00,,,0.00,Wunderground v.1.15,2013-10-24 05:45:00,
2013-10-23 22:50:00,57.9,24.1,30.18,West,269,0.0,4.0,27,0.00,,,0.00,Wunderground v.1.15,2013-10-24 05:50:00,
2013-10-23 23:00:00,57.8,24.0,30.18,West,269,0.0,4.0,27,0.00,,,0.00,Wunderground v.1.15,2013-10-24 06:00:00,
2013-10-23 23:05:00,57.6,23.8,30.18,West,271,0.0,4.0,27,0.00,,,0.00,Wunderground v.1.15,2013-10-24 06:05:00,
2013-10-23 23:10:00,57.7,23.9,30.18,West,271,1.0,4.0,27,0.00,,,0.00,Wunderground v.1.15,2013-10-24 06:10:00,
2013-10-23 23:20:00,58.4,24.5,30.18,West,277,2.0,3.0,27,0.00,,,0.00,Wunderground v.1.15,2013-10-24 06:20:00,
2013-10-23 23:25:00,59.1,24.2,30.18,West,270,3.0,6.0,26,0.00,,,0.00,Wunderground v.1.15,2013-10-24 06:25:00,
2013-10-23 23:30:00,59.8,24.8,30.18,West,270,3.0,3.0,26,0.00,,,0.00,Wunderground v.1.15,2013-10-24 06:30:00,
2013-10-23 23:40:00,60.4,24.4,30.18,WNW,285,2.0,6.0,25,0.00,,,0.00,Wunderground v.1.15,2013-10-24 06:40:00,
2013-10-23 23:45:00,60.5,23.5,30.18,West,280,3.0,6.0,24,0.00,,,0.00,Wunderground v.1.15,2013-10-24 06:45:00,
2013-10-23 23:50:00,60.5,23.5,30.18,West,279,3.0,7.0,24,0.00,,,0.00,Wunderground v.1.15,2013-10-24 06:50:00,